Disclaimer

Please do not use the information listed here in-flight or in-navigation, as they are not provided to us by the airports but are provided by volunteers, so they might be outdated.

Search


Regions


Airport information page

Radio informations:
COMODORO TWR - 119.9 MHz
COMODORO CON - 124.3 MHz

Airport informations:
Latitude: 45° 47' 07.25" S
Longitude: 067° 27' 55.83" W
Elevation: 190 feet - 58 meters
Operating hours: 24 hour operations
Operating agency: Military-civil joint use airport
Timezone: UTC-3
Fuel: Jet A1, without icing nhibitor.

100/130 MIL Spec, low lead, aviation gasoline (BLUE)

Runway information:
07/25 - 9275 x 164 feet< - >2827 x 50 meters

Recent METARs:
SAVC 181700Z 27016G30KT 9999 FEW040 24/01 Q1006
SAVC 181700Z 27016G30KT 9999 FEW040 24/01 Q1006
SAVC 181800Z 29019G32KT 9999 SCT040 26/02 Q1005

Airport on the map: